createdAt,value
2022-08-18T00:02:05.954Z,58.96
2022-08-18T00:04:48.571Z,59.18
2022-08-18T00:07:21.779Z,59.03
2022-08-18T00:09:51.204Z,59.35
2022-08-18T00:12:25.727Z,59.86
2022-08-18T00:14:56.925Z,60.01
2022-08-18T00:17:26.269Z,59.69
2022-08-18T00:19:57.145Z,60.65
2022-08-18T00:22:29.132Z,60.38
2022-08-18T00:24:59.132Z,60.86
2022-08-18T00:27:30.785Z,60.48
2022-08-18T00:30:03.547Z,61.54
2022-08-18T00:32:37.528Z,61.66
2022-08-18T00:35:13.823Z,61.74
2022-08-18T00:37:44.372Z,61.86
2022-08-18T00:40:18.982Z,62.35
2022-08-18T00:42:52.961Z,61.80
2022-08-18T00:45:27.651Z,62.36
2022-08-18T00:47:58.018Z,62.18
2022-08-18T00:50:35.078Z,62.65
2022-08-18T00:53:12.301Z,62.47
2022-08-18T00:55:54.056Z,62.71
2022-08-18T00:58:29.665Z,62.92
2022-08-18T01:01:01.591Z,63.09
2022-08-18T01:03:33.780Z,63.48
2022-08-18T01:06:11.067Z,62.93
2022-08-18T01:08:41.144Z,63.22
2022-08-18T01:11:11.908Z,62.41
2022-08-18T01:13:42.772Z,62.81
2022-08-18T01:16:29.890Z,62.38
2022-08-18T01:19:16.697Z,62.02
2022-08-18T01:21:52.478Z,62.22
2022-08-18T01:24:42.192Z,61.73
2022-08-18T01:27:14.162Z,61.91
2022-08-18T01:29:43.741Z,61.19
2022-08-18T01:32:19.778Z,60.62
2022-08-18T01:34:50.235Z,61.02
2022-08-18T01:37:23.432Z,60.76
2022-08-18T01:41:22.675Z,60.15
2022-08-18T01:42:46.711Z,59.47
2022-08-18T01:45:20.780Z,60.04
2022-08-18T01:47:50.778Z,59.05
2022-08-18T01:50:20.151Z,59.36
2022-08-18T01:52:50.117Z,59.18
2022-08-18T01:55:21.124Z,59.00
2022-08-18T01:57:50.527Z,58.38
2022-08-18T02:00:20.258Z,58.28
2022-08-18T02:03:01.630Z,58.02
2022-08-18T02:05:38.812Z,57.88
2022-08-18T02:08:10.794Z,57.85
2022-08-18T02:10:42.471Z,58.17
2022-08-18T02:13:11.878Z,58.72
2022-08-18T02:15:42.881Z,57.92
2022-08-18T02:18:37.167Z,57.50
2022-08-18T02:21:11.847Z,57.53
2022-08-18T02:23:44.934Z,57.30
2022-08-18T02:26:24.891Z,57.67
2022-08-18T02:28:54.234Z,57.30
2022-08-18T02:31:26.313Z,57.77
2022-08-18T02:33:55.567Z,57.22
2022-08-18T02:36:25.326Z,57.61
2022-08-18T02:38:59.305Z,57.46
2022-08-18T02:41:31.423Z,57.03
2022-08-18T02:44:01.330Z,57.87
2022-08-18T02:46:31.231Z,57.44
2022-08-18T02:49:01.719Z,57.57
2022-08-18T02:51:31.107Z,58.01
2022-08-18T02:54:00.366Z,56.94
2022-08-18T02:56:40.949Z,57.09
2022-08-18T02:59:16.221Z,57.15
2022-08-18T03:01:49.145Z,57.63
2022-08-18T03:04:24.073Z,56.95
2022-08-18T03:06:57.437Z,56.98
2022-08-18T03:09:26.748Z,57.41
2022-08-18T03:11:57.407Z,57.67
2022-08-18T03:14:27.320Z,57.61
2022-08-18T03:16:56.742Z,57.79
2022-08-18T03:19:29.318Z,57.61
2022-08-18T03:22:02.878Z,58.32
2022-08-18T03:24:33.880Z,58.52
2022-08-18T03:27:08.024Z,58.80
2022-08-18T03:29:37.567Z,58.31
2022-08-18T03:32:09.567Z,58.89
2022-08-18T03:34:38.970Z,58.57
2022-08-18T03:37:08.270Z,59.50
2022-08-18T03:39:37.860Z,60.77
2022-08-18T03:42:08.759Z,60.37
2022-08-18T03:44:38.204Z,60.69
2022-08-18T03:47:11.924Z,62.24
2022-08-18T03:49:41.891Z,62.11
2022-08-18T03:52:11.990Z,61.97
2022-08-18T03:54:42.129Z,63.33
2022-08-18T03:57:14.342Z,63.12
2022-08-18T03:59:44.008Z,63.86
2022-08-18T04:02:13.342Z,64.13
2022-08-18T04:04:42.899Z,64.07
2022-08-18T04:07:17.147Z,64.17
2022-08-18T04:09:47.133Z,63.94
2022-08-18T04:12:19.103Z,64.53
2022-08-18T04:14:50.783Z,64.60
2022-08-18T04:17:24.891Z,65.34
2022-08-18T04:19:55.362Z,64.50
2022-08-18T04:22:26.466Z,64.36
2022-08-18T04:24:56.165Z,64.19
2022-08-18T04:27:29.932Z,64.49
2022-08-18T04:29:59.489Z,64.33
2022-08-18T04:32:31.121Z,64.71
2022-08-18T04:35:02.807Z,64.75
2022-08-18T04:37:33.236Z,65.34
2022-08-18T04:40:11.285Z,65.83
2022-08-18T04:42:44.921Z,66.03
2022-08-18T04:45:14.398Z,66.90
2022-08-18T04:47:43.789Z,66.54
2022-08-18T04:50:14.128Z,66.79
2022-08-18T04:53:02.141Z,66.92
2022-08-18T04:55:31.414Z,67.86
2022-08-18T04:58:02.709Z,68.12
2022-08-18T05:00:32.071Z,68.45
2022-08-18T05:03:01.269Z,68.33
2022-08-18T05:05:30.389Z,68.20
2022-08-18T05:07:59.679Z,68.41
2022-08-18T05:10:29.128Z,68.27
2022-08-18T05:12:58.748Z,68.58
2022-08-18T05:15:42.142Z,69.52
2022-08-18T05:18:24.387Z,69.65
2022-08-18T05:20:59.227Z,70.24
2022-08-18T05:23:29.592Z,70.13
2022-08-18T05:26:00.862Z,70.75
2022-08-18T05:28:30.500Z,70.65
2022-08-18T05:31:01.121Z,70.68
2022-08-18T05:33:30.594Z,70.78
2022-08-18T05:36:06.050Z,71.59
2022-08-18T05:38:49.024Z,71.94
2022-08-18T05:41:28.112Z,71.89
2022-08-18T05:43:59.518Z,72.11
2022-08-18T05:46:41.607Z,72.29
2022-08-18T05:49:12.015Z,72.88
2022-08-18T05:51:46.541Z,72.22
2022-08-18T05:54:35.053Z,72.86
2022-08-18T05:57:09.133Z,72.93
2022-08-18T05:59:42.941Z,72.83
2022-08-18T06:02:21.509Z,73.16
2022-08-18T06:04:57.327Z,73.42
2022-08-18T06:07:35.580Z,73.57
2022-08-18T06:10:07.494Z,73.17
2022-08-18T06:12:46.963Z,73.28
2022-08-18T06:15:21.718Z,73.90
2022-08-18T06:18:35.069Z,74.04
2022-08-18T06:21:38.797Z,74.19
2022-08-18T06:24:18.618Z,74.49
2022-08-18T06:26:57.406Z,74.26
2022-08-18T06:29:48.044Z,75.13
2022-08-18T06:32:29.643Z,74.57
2022-08-18T06:35:19.430Z,75.26
2022-08-18T06:38:16.539Z,75.14
2022-08-18T06:40:48.118Z,74.38
2022-08-18T06:43:22.710Z,75.06
2022-08-18T06:45:53.233Z,74.78
2022-08-18T06:48:33.701Z,74.81
2022-08-18T06:51:08.608Z,75.26
2022-08-18T06:53:59.530Z,74.80
2022-08-18T06:56:49.177Z,74.84
2022-08-18T06:59:25.300Z,75.10
2022-08-18T07:02:00.402Z,74.78
2022-08-18T07:04:43.808Z,74.83
2022-08-18T07:07:39.849Z,75.39
2022-08-18T07:10:34.576Z,75.54
2022-08-18T07:13:25.691Z,75.40
2022-08-18T07:15:57.602Z,75.24
2022-08-18T07:18:30.009Z,75.09
2022-08-18T07:21:03.371Z,74.92
2022-08-18T07:23:39.005Z,74.10
2022-08-18T07:26:15.703Z,74.12
2022-08-18T07:28:48.576Z,73.48
2022-08-18T07:31:36.146Z,73.26
2022-08-18T07:34:13.671Z,73.66
2022-08-18T07:36:51.458Z,73.27
2022-08-18T07:39:29.255Z,72.90
2022-08-18T07:42:06.490Z,73.34
2022-08-18T07:44:47.990Z,73.80
2022-08-18T07:47:23.510Z,73.92
2022-08-18T07:50:18.306Z,73.57
2022-08-18T07:52:54.808Z,74.28
2022-08-18T07:55:31.969Z,74.24
2022-08-18T07:58:13.199Z,73.88
2022-08-18T08:00:59.270Z,74.11
2022-08-18T08:03:46.863Z,73.59
2022-08-18T08:06:21.210Z,73.85
2022-08-18T08:09:00.878Z,74.08
2022-08-18T08:11:49.489Z,74.05
2022-08-18T08:14:41.575Z,73.84
2022-08-18T08:17:25.851Z,74.07
2022-08-18T08:20:23.864Z,73.76
2022-08-18T08:23:17.813Z,73.55
2022-08-18T08:26:05.889Z,73.39
2022-08-18T08:28:55.098Z,73.48
2022-08-18T08:31:38.467Z,73.84
2022-08-18T08:34:15.293Z,74.62
2022-08-18T08:36:48.291Z,73.73
2022-08-18T08:39:28.489Z,73.91
2022-08-18T08:42:30.293Z,73.75
2022-08-18T08:45:03.728Z,73.57
2022-08-18T08:47:44.638Z,73.30
2022-08-18T08:50:19.175Z,73.45
2022-08-18T08:52:57.133Z,73.42
2022-08-18T08:55:31.122Z,73.03
2022-08-18T08:58:17.764Z,72.87
2022-08-18T09:00:51.762Z,71.91
2022-08-18T09:03:38.094Z,71.74
2022-08-18T09:06:23.906Z,71.48
2022-08-18T09:09:25.489Z,70.96
2022-08-18T09:12:42.749Z,71.23
2022-08-18T09:15:46.575Z,70.63
2022-08-18T09:18:45.042Z,70.24
2022-08-18T09:21:42.238Z,70.51
2022-08-18T09:24:25.850Z,69.82
2022-08-18T09:27:15.405Z,69.41
2022-08-18T09:29:53.572Z,69.55
2022-08-18T09:32:58.498Z,69.22
2022-08-18T09:36:00.096Z,68.51
2022-08-18T09:38:50.830Z,67.99
2022-08-18T09:41:34.242Z,67.19
2022-08-18T09:47:02.765Z,66.64
2022-08-18T09:49:53.038Z,66.67
2022-08-18T09:50:37.283Z,66.88
2022-08-18T09:53:04.612Z,65.82
2022-08-18T09:56:05.067Z,65.95
2022-08-18T09:58:58.853Z,65.42
2022-08-18T10:01:39.985Z,65.36
2022-08-18T10:04:34.233Z,65.02
2022-08-18T10:07:43.655Z,65.18
2022-08-18T10:10:59.339Z,64.52
2022-08-18T10:13:25.493Z,64.50
2022-08-18T10:16:16.865Z,65.03
2022-08-18T10:19:11.541Z,64.37
2022-08-18T10:22:11.263Z,64.29
2022-08-18T10:24:53.567Z,64.36
2022-08-18T10:27:56.928Z,63.55
2022-08-18T10:31:10.097Z,63.06
2022-08-18T10:34:16.007Z,62.98
2022-08-18T10:36:54.465Z,62.88
2022-08-18T10:42:44.602Z,62.02
2022-08-18T10:45:24.933Z,60.99
2022-08-18T10:48:11.859Z,62.21
2022-08-18T10:50:55.235Z,60.83
2022-08-18T10:53:39.309Z,60.76
2022-08-18T10:56:29.778Z,60.25
2022-08-18T11:02:43.012Z,59.71
2022-08-18T11:05:19.040Z,59.85
2022-08-18T11:07:52.035Z,59.72
2022-08-18T11:10:58.212Z,60.34
2022-08-18T11:13:36.703Z,60.84
2022-08-18T11:16:19.485Z,61.36
2022-08-18T11:18:52.947Z,61.20
2022-08-18T11:21:32.978Z,61.72
2022-08-18T11:24:11.948Z,61.53
2022-08-18T11:26:53.145Z,61.52
2022-08-18T11:29:32.155Z,61.63
2022-08-18T11:32:11.147Z,61.60
2022-08-18T11:43:39.111Z,63.56
2022-08-18T11:46:16.480Z,63.98
2022-08-18T11:48:53.256Z,63.62
2022-08-18T11:51:27.009Z,64.62
2022-08-18T11:54:00.688Z,64.14
2022-08-18T11:56:37.714Z,64.60
2022-08-18T11:59:54.440Z,64.38
2022-08-18T12:02:27.318Z,64.14
2022-08-18T12:05:10.611Z,64.55
2022-08-18T12:07:49.630Z,64.09
2022-08-18T12:10:29.722Z,64.16
2022-08-18T12:13:01.286Z,64.68
2022-08-18T12:15:44.233Z,65.12
2022-08-18T12:21:10.098Z,65.33
2022-08-18T12:23:52.244Z,65.86
2022-08-18T12:26:38.551Z,65.66
2022-08-18T12:29:09.025Z,65.47
2022-08-18T12:34:29.975Z,66.34
2022-08-18T12:37:02.162Z,66.11
2022-08-18T12:39:39.905Z,66.88
2022-08-18T12:44:58.604Z,67.18
2022-08-18T12:47:31.233Z,67.47
2022-08-18T12:50:01.202Z,67.31
2022-08-18T12:52:32.242Z,67.32
2022-08-18T12:55:01.693Z,66.82
2022-08-18T12:57:52.346Z,67.77
2022-08-18T13:00:27.732Z,67.59
2022-08-18T13:02:57.667Z,67.35
2022-08-18T13:05:29.707Z,68.03
2022-08-18T13:08:04.955Z,67.34
2022-08-18T13:10:45.621Z,67.82
2022-08-18T13:13:18.109Z,67.51
2022-08-18T13:15:57.902Z,68.14
2022-08-18T13:18:29.413Z,68.22
2022-08-18T13:20:59.096Z,68.88
2022-08-18T13:23:30.791Z,69.37
2022-08-18T13:26:03.068Z,69.37
2022-08-18T13:28:36.079Z,68.38
2022-08-18T13:31:24.175Z,67.52
2022-08-18T13:33:57.095Z,67.16
2022-08-18T13:36:45.989Z,67.06
2022-08-18T13:39:20.072Z,65.65
2022-08-18T13:41:52.805Z,65.06
2022-08-18T13:44:25.927Z,64.93
2022-08-18T13:46:56.530Z,63.66
2022-08-18T13:49:29.950Z,61.57
2022-08-18T13:52:01.162Z,60.79
2022-08-18T13:54:36.099Z,59.67
2022-08-18T13:57:06.774Z,59.09
2022-08-18T13:59:36.227Z,58.16
2022-08-18T14:02:10.040Z,56.95
2022-08-18T14:04:40.376Z,56.96
2022-08-18T14:07:18.239Z,57.93
2022-08-18T14:09:49.762Z,57.25
2022-08-18T14:12:25.972Z,57.20
2022-08-18T14:14:58.074Z,57.75
2022-08-18T14:17:28.777Z,57.28
2022-08-18T14:20:22.096Z,57.96
2022-08-18T14:23:22.041Z,58.80
2022-08-18T14:26:13.335Z,59.09
2022-08-18T14:28:53.214Z,59.66
2022-08-18T14:31:22.987Z,64.69
2022-08-18T14:34:03.097Z,67.52
2022-08-18T14:36:34.131Z,67.89
2022-08-18T14:39:08.713Z,67.88
2022-08-18T14:41:49.415Z,68.80
2022-08-18T14:44:26.133Z,68.21
2022-08-18T14:47:02.196Z,67.32
2022-08-18T14:49:31.893Z,63.97
2022-08-18T14:52:03.511Z,60.57
2022-08-18T14:54:46.096Z,58.35
2022-08-18T14:57:17.543Z,56.58
2022-08-18T14:59:55.630Z,56.45
2022-08-18T15:02:29.628Z,55.68
2022-08-18T15:05:19.779Z,55.42
2022-08-18T15:08:00.651Z,56.11
2022-08-18T15:10:33.392Z,57.70
2022-08-18T15:13:07.332Z,57.81
2022-08-18T15:15:50.694Z,57.54
2022-08-18T15:18:22.820Z,57.00
2022-08-18T15:21:35.671Z,56.84
2022-08-18T15:24:20.095Z,56.88
2022-08-18T15:26:51.863Z,56.59
2022-08-18T15:29:29.515Z,56.26
2022-08-18T15:32:05.767Z,56.14
2022-08-18T15:34:47.043Z,56.30
2022-08-18T15:37:24.379Z,55.20
2022-08-18T15:40:05.829Z,54.71
2022-08-18T15:42:35.253Z,54.21
2022-08-18T15:45:12.009Z,52.91
2022-08-18T15:47:44.340Z,51.30
2022-08-18T15:50:21.969Z,49.42
2022-08-18T15:52:58.930Z,48.50
2022-08-18T15:55:35.742Z,47.58
2022-08-18T15:58:11.023Z,47.12
2022-08-18T16:00:45.903Z,46.50
2022-08-18T16:03:17.052Z,47.39
2022-08-18T16:05:53.170Z,47.47
2022-08-18T16:08:24.945Z,47.53
2022-08-18T16:10:55.514Z,47.70
2022-08-18T16:13:26.561Z,47.48
2022-08-18T16:15:57.324Z,48.52
2022-08-18T16:18:27.730Z,49.30
2022-08-18T16:20:56.967Z,50.16
2022-08-18T16:23:26.169Z,50.94
2022-08-18T16:26:04.278Z,51.26
2022-08-18T16:28:35.212Z,49.15
2022-08-18T16:31:06.531Z,47.85
2022-08-18T16:33:36.610Z,48.01
2022-08-18T16:36:07.653Z,47.75
2022-08-18T16:38:38.973Z,46.83
2022-08-18T16:41:13.994Z,46.43
2022-08-18T16:43:46.469Z,45.67
2022-08-18T16:46:18.961Z,44.46
2022-08-18T16:48:48.364Z,44.21
2022-08-18T16:51:22.375Z,44.25
2022-08-18T16:53:53.678Z,44.28
2022-08-18T16:56:26.849Z,43.02
2022-08-18T16:59:15.061Z,43.06
2022-08-18T17:02:02.793Z,43.16
2022-08-18T17:04:34.677Z,43.11
2022-08-18T17:07:06.968Z,42.98
2022-08-18T17:09:37.094Z,42.12
2022-08-18T17:12:06.702Z,42.30
2022-08-18T17:14:36.993Z,42.73
2022-08-18T17:17:07.792Z,42.07
2022-08-18T17:19:37.729Z,41.50
2022-08-18T17:22:08.223Z,40.89
2022-08-18T17:24:38.402Z,40.52
2022-08-18T17:27:27.188Z,39.67
2022-08-18T17:30:04.318Z,39.16
2022-08-18T17:32:50.000Z,38.80
2022-08-18T17:35:29.303Z,39.18
2022-08-18T17:38:04.870Z,38.50
2022-08-18T17:40:43.953Z,38.77
2022-08-18T17:43:16.147Z,38.95
2022-08-18T17:45:48.558Z,39.39
2022-08-18T17:48:23.587Z,40.04
2022-08-18T17:51:16.323Z,40.65
2022-08-18T17:53:46.792Z,40.86
2022-08-18T17:56:21.675Z,41.32
2022-08-18T17:58:56.968Z,40.98
2022-08-18T18:01:28.857Z,41.78
2022-08-18T18:04:00.468Z,41.81
2022-08-18T18:06:38.313Z,42.01
2022-08-18T18:09:11.178Z,41.87
2022-08-18T18:11:46.182Z,41.53
2022-08-18T18:14:29.668Z,40.54
2022-08-18T18:17:11.781Z,40.61
2022-08-18T18:19:46.564Z,40.20
2022-08-18T18:22:24.219Z,39.49
2022-08-18T18:24:57.458Z,39.64
2022-08-18T18:27:33.533Z,40.22
2022-08-18T18:30:07.661Z,40.52
2022-08-18T18:32:58.940Z,41.52
2022-08-18T18:35:34.260Z,43.15
2022-08-18T18:38:29.069Z,43.69
2022-08-18T18:41:02.587Z,44.33
2022-08-18T18:43:38.433Z,44.50
2022-08-18T18:46:35.431Z,43.47
2022-08-18T18:49:19.494Z,43.84
2022-08-18T18:52:06.803Z,43.01
2022-08-18T18:55:02.336Z,41.71
2022-08-18T18:57:40.846Z,40.77
2022-08-18T19:00:21.055Z,40.80
2022-08-18T19:03:04.165Z,40.05
2022-08-18T19:05:39.640Z,40.50
2022-08-18T19:08:28.523Z,40.34
2022-08-18T19:11:12.369Z,40.70
2022-08-18T19:13:54.184Z,41.05
2022-08-18T19:16:31.831Z,41.03
2022-08-18T19:19:36.923Z,41.21
2022-08-18T19:22:09.784Z,41.56
2022-08-18T19:24:52.109Z,41.37
2022-08-18T19:27:34.229Z,41.59
2022-08-18T19:30:10.967Z,41.71
2022-08-18T19:32:45.919Z,42.30
2022-08-18T19:35:35.543Z,42.45
2022-08-18T19:38:21.087Z,42.90
2022-08-18T19:41:00.539Z,43.48
2022-08-18T19:43:44.652Z,43.03
2022-08-18T19:46:25.413Z,44.38
2022-08-18T19:48:59.873Z,44.45
2022-08-18T19:51:37.554Z,45.28
2022-08-18T19:54:39.659Z,45.64
2022-08-18T19:57:34.818Z,46.37
2022-08-18T20:00:18.439Z,45.97
2022-08-18T20:03:28.076Z,46.72
2022-08-18T20:06:34.939Z,46.92
2022-08-18T20:09:50.277Z,47.08
2022-08-18T20:12:53.816Z,47.96
2022-08-18T20:15:26.413Z,48.03
2022-08-18T20:18:20.749Z,47.79
2022-08-18T20:21:39.825Z,48.82
2022-08-18T20:24:32.804Z,48.74
2022-08-18T20:27:36.051Z,48.74
2022-08-18T20:30:28.504Z,48.81
2022-08-18T20:33:21.621Z,49.05
2022-08-18T20:36:08.170Z,49.37
2022-08-18T20:38:40.748Z,49.88
2022-08-18T20:41:47.283Z,50.26
2022-08-18T20:44:48.165Z,50.72
2022-08-18T20:47:57.348Z,50.71
2022-08-18T20:51:05.478Z,52.06
2022-08-18T20:54:18.875Z,52.50
2022-08-18T20:56:59.806Z,52.06
2022-08-18T20:59:39.505Z,52.52
2022-08-18T21:02:27.106Z,52.68
2022-08-18T21:05:01.058Z,52.74
2022-08-18T21:07:38.012Z,53.25
2022-08-18T21:10:23.613Z,53.61
2022-08-18T21:12:55.397Z,53.26
2022-08-18T21:15:30.429Z,53.85
2022-08-18T21:18:02.343Z,54.14
2022-08-18T21:20:33.627Z,54.36
2022-08-18T21:23:08.713Z,54.64
2022-08-18T21:25:42.195Z,55.27
2022-08-18T21:28:13.779Z,54.96
2022-08-18T21:31:28.954Z,55.01
2022-08-18T21:33:54.187Z,55.04
2022-08-18T21:36:32.191Z,55.15
2022-08-18T21:39:08.713Z,55.31
2022-08-18T21:41:46.515Z,55.83
2022-08-18T21:44:21.947Z,55.71
2022-08-18T21:47:05.847Z,55.73
2022-08-18T21:49:35.272Z,56.46
2022-08-18T21:52:05.172Z,56.28
2022-08-18T21:54:35.763Z,56.30
2022-08-18T21:57:23.027Z,56.18
2022-08-18T22:00:30.474Z,56.46
2022-08-18T22:03:23.836Z,56.32
2022-08-18T22:06:03.583Z,55.76
2022-08-18T22:08:49.870Z,56.07
2022-08-18T22:12:00.968Z,56.28
2022-08-18T22:14:53.682Z,56.33
2022-08-18T22:17:27.288Z,56.02
2022-08-18T22:20:41.671Z,55.26
2022-08-18T22:23:45.893Z,55.64
2022-08-18T22:26:22.437Z,56.03
2022-08-18T22:29:15.469Z,54.58
2022-08-18T22:31:54.789Z,55.20
2022-08-18T22:34:28.613Z,55.19
2022-08-18T22:37:09.450Z,54.55
2022-08-18T22:39:49.267Z,54.44
2022-08-18T22:42:21.282Z,54.08
2022-08-18T22:44:51.159Z,54.01
2022-08-18T22:47:24.038Z,54.09
2022-08-18T22:49:54.395Z,54.53
2022-08-18T22:52:31.548Z,53.87
2022-08-18T22:55:06.559Z,54.26
2022-08-18T22:57:36.541Z,54.09
2022-08-18T23:00:11.022Z,53.69
2022-08-18T23:02:40.585Z,54.04
2022-08-18T23:05:11.521Z,53.91
2022-08-18T23:07:42.865Z,53.76
2022-08-18T23:10:14.315Z,54.15
2022-08-18T23:12:44.672Z,54.53
2022-08-18T23:15:14.889Z,54.32
2022-08-18T23:18:10.000Z,54.10
2022-08-18T23:20:39.690Z,54.99
2022-08-18T23:23:11.907Z,54.60
2022-08-18T23:25:41.509Z,55.53
2022-08-18T23:28:11.133Z,55.43
2022-08-18T23:30:41.698Z,55.96
2022-08-18T23:33:11.650Z,56.87
2022-08-18T23:35:42.123Z,56.53
2022-08-18T23:38:15.861Z,56.51
2022-08-18T23:40:47.901Z,57.34
2022-08-18T23:43:17.714Z,57.77
2022-08-18T23:45:49.472Z,56.93
2022-08-18T23:48:21.294Z,57.75
2022-08-18T23:50:51.037Z,57.59
2022-08-18T23:53:23.478Z,57.92
2022-08-18T23:55:53.186Z,57.48
2022-08-18T23:58:22.680Z,58.60
